createdAt,value
2023-02-11T00:00:48.407Z,76.35
2023-02-11T00:03:16.070Z,75.73
2023-02-11T00:05:43.594Z,75.33
2023-02-11T00:08:16.890Z,75.18
2023-02-11T00:10:46.483Z,79.41
2023-02-11T00:13:13.928Z,74.93
2023-02-11T00:15:41.466Z,73.76
2023-02-11T00:18:08.928Z,75.82
2023-02-11T00:20:36.362Z,74.81
2023-02-11T00:23:03.834Z,74.89
2023-02-11T00:25:31.304Z,75.84
2023-02-11T00:28:00.192Z,74.67
2023-02-11T00:30:27.746Z,74.68
2023-02-11T00:32:55.231Z,76.37
2023-02-11T00:35:30.509Z,78.87
2023-02-11T00:37:58.106Z,76.98
2023-02-11T00:40:25.700Z,77.14
2023-02-11T00:42:53.149Z,75.96
2023-02-11T00:45:21.994Z,76.46
2023-02-11T00:47:49.434Z,77.03
2023-02-11T00:50:16.864Z,78.74
2023-02-11T00:52:44.444Z,75.22
2023-02-11T00:55:11.895Z,75.10
2023-02-11T00:57:39.392Z,76.95
2023-02-11T01:00:08.755Z,77.41
2023-02-11T01:02:37.501Z,76.44
2023-02-11T01:05:05.297Z,75.67
2023-02-11T01:07:33.084Z,73.63
2023-02-11T01:10:00.522Z,76.83
2023-02-11T01:12:28.016Z,76.56
2023-02-11T01:14:55.493Z,77.31
2023-02-11T01:17:22.956Z,80.28
2023-02-11T01:19:51.766Z,80.30
2023-02-11T01:22:19.233Z,79.03
2023-02-11T01:24:46.661Z,79.68
2023-02-11T01:27:14.154Z,76.79
2023-02-11T01:29:41.716Z,77.38
2023-02-11T01:32:09.270Z,78.85
2023-02-11T01:34:36.751Z,76.13
2023-02-11T01:37:05.527Z,75.60
2023-02-11T01:39:34.895Z,76.09
2023-02-11T01:42:02.830Z,76.49
2023-02-11T01:44:33.109Z,75.18
2023-02-11T01:47:00.727Z,75.30
2023-02-11T01:49:31.089Z,76.05
2023-02-11T01:52:04.547Z,77.96
2023-02-11T01:54:55.073Z,78.95
2023-02-11T01:57:25.631Z,78.59
2023-02-11T02:00:02.141Z,76.51
2023-02-11T02:02:35.368Z,78.27
2023-02-11T02:05:09.278Z,79.70
2023-02-11T02:07:42.305Z,78.42
2023-02-11T02:10:22.379Z,78.00
2023-02-11T02:12:50.102Z,78.39
2023-02-11T02:15:27.432Z,77.26
2023-02-11T02:18:07.644Z,80.12
2023-02-11T02:21:10.010Z,79.30
2023-02-11T02:23:55.129Z,77.33
2023-02-11T02:26:53.891Z,76.18
2023-02-11T02:29:52.555Z,78.66
2023-02-11T02:32:50.641Z,76.86
2023-02-11T02:35:29.508Z,77.66
2023-02-11T02:38:02.700Z,78.19
2023-02-11T02:40:33.210Z,78.26
2023-02-11T02:43:02.593Z,77.39
2023-02-11T02:45:30.224Z,78.03
2023-02-11T02:47:59.066Z,80.16
2023-02-11T02:50:31.960Z,79.83
2023-02-11T02:53:12.754Z,78.73
2023-02-11T02:55:53.527Z,76.23
2023-02-11T02:58:49.339Z,79.05
2023-02-11T03:01:27.572Z,76.64
2023-02-11T03:04:04.478Z,78.46
2023-02-11T03:06:37.965Z,80.45
2023-02-11T03:09:11.453Z,78.59
2023-02-11T03:11:40.676Z,77.34
2023-02-11T03:14:14.262Z,76.73
2023-02-11T03:16:44.368Z,77.27
2023-02-11T03:19:16.785Z,77.71
2023-02-11T03:21:45.590Z,76.94
2023-02-11T03:24:19.626Z,75.56
2023-02-11T03:26:51.021Z,80.29
2023-02-11T03:29:31.799Z,77.87
2023-02-11T03:32:05.462Z,78.48
2023-02-11T03:34:41.891Z,78.82
2023-02-11T03:37:13.973Z,79.59
2023-02-11T03:39:46.023Z,79.66
2023-02-11T03:42:15.653Z,79.60
2023-02-11T03:44:48.611Z,79.40
2023-02-11T03:47:20.889Z,77.83
2023-02-11T03:49:50.654Z,79.64
2023-02-11T03:52:20.903Z,78.01
2023-02-11T03:54:52.399Z,77.57
2023-02-11T03:57:20.075Z,79.17
2023-02-11T03:59:52.550Z,79.97
2023-02-11T04:02:21.281Z,77.37
2023-02-11T04:04:49.996Z,79.51
2023-02-11T04:07:17.453Z,79.74
2023-02-11T04:09:44.908Z,81.37
2023-02-11T04:12:12.426Z,81.61
2023-02-11T04:14:40.159Z,78.53
2023-02-11T04:17:07.586Z,79.25
2023-02-11T04:19:35.036Z,78.13
2023-02-11T04:22:03.913Z,80.91
2023-02-11T04:24:31.809Z,80.75
2023-02-11T04:26:59.442Z,78.43
2023-02-11T04:29:28.141Z,78.41
2023-02-11T04:31:56.213Z,80.28
2023-02-11T04:34:24.457Z,80.53
2023-02-11T04:36:52.676Z,78.38
2023-02-11T04:39:21.520Z,82.19
2023-02-11T04:41:48.938Z,80.10
2023-02-11T04:44:16.435Z,80.76
2023-02-11T04:46:43.870Z,80.93
2023-02-11T04:49:13.707Z,79.33
2023-02-11T04:51:41.316Z,80.22
2023-02-11T04:54:09.053Z,80.75
2023-02-11T04:56:38.165Z,84.99
2023-02-11T04:59:06.235Z,84.65
2023-02-11T05:01:33.905Z,82.05
2023-02-11T05:04:01.582Z,83.20
2023-02-11T05:06:29.132Z,84.99
2023-02-11T05:08:56.605Z,84.77
2023-02-11T05:11:25.607Z,85.26
2023-02-11T05:13:54.547Z,83.39
2023-02-11T05:16:21.985Z,83.64
2023-02-11T05:18:52.437Z,83.87
2023-02-11T05:21:20.535Z,84.38
2023-02-11T05:23:48.364Z,84.54
2023-02-11T05:26:16.365Z,84.65
2023-02-11T05:28:44.599Z,83.81
2023-02-11T05:31:14.591Z,84.09
2023-02-11T05:33:42.807Z,83.85
2023-02-11T05:36:12.665Z,85.97
2023-02-11T05:38:40.703Z,88.88
2023-02-11T05:41:08.124Z,88.00
2023-02-11T05:43:36.642Z,88.65
2023-02-11T05:46:05.098Z,86.21
2023-02-11T05:48:34.420Z,88.21
2023-02-11T05:51:01.858Z,88.64
2023-02-11T05:53:29.323Z,87.99
2023-02-11T05:55:57.412Z,87.49
2023-02-11T05:58:24.861Z,88.87
2023-02-11T06:00:52.305Z,87.32
2023-02-11T06:03:19.808Z,85.93
2023-02-11T06:05:48.777Z,87.48
2023-02-11T06:08:16.480Z,87.33
2023-02-11T06:10:46.186Z,86.25
2023-02-11T06:13:13.953Z,85.73
2023-02-11T06:15:41.460Z,86.20
2023-02-11T06:18:09.616Z,90.74
2023-02-11T06:20:37.238Z,86.96
2023-02-11T06:23:05.969Z,85.96
2023-02-11T06:25:33.505Z,87.38
2023-02-11T06:28:00.903Z,84.91
2023-02-11T06:30:28.339Z,86.91
2023-02-11T06:32:55.799Z,87.42
2023-02-11T06:35:23.232Z,90.79
2023-02-11T06:37:50.825Z,90.90
2023-02-11T06:40:19.901Z,89.17
2023-02-11T06:42:47.294Z,89.60
2023-02-11T06:45:14.712Z,90.71
2023-02-11T06:47:42.548Z,88.32
2023-02-11T06:50:13.091Z,89.27
2023-02-11T06:52:40.625Z,85.31
2023-02-11T06:55:08.276Z,89.76
2023-02-11T06:57:37.142Z,90.92
2023-02-11T07:00:05.877Z,89.84
2023-02-11T07:02:33.469Z,94.42
2023-02-11T07:05:00.948Z,91.92
2023-02-11T07:07:28.615Z,92.97
2023-02-11T07:09:56.105Z,95.03
2023-02-11T07:12:23.555Z,93.87
2023-02-11T07:14:52.949Z,90.54
2023-02-11T07:17:20.385Z,92.26
2023-02-11T07:19:47.813Z,90.81
2023-02-11T07:22:15.287Z,90.56
2023-02-11T07:24:42.901Z,91.97
2023-02-11T07:27:10.371Z,91.50
2023-02-11T07:29:37.789Z,91.02
2023-02-11T07:32:06.861Z,92.50
2023-02-11T07:34:34.427Z,92.04
2023-02-11T07:37:01.944Z,90.32
2023-02-11T07:39:29.480Z,90.61
2023-02-11T07:41:57.366Z,90.56
2023-02-11T07:44:24.910Z,92.88
2023-02-11T07:46:52.439Z,92.03
2023-02-11T07:49:21.334Z,93.27
2023-02-11T07:51:49.233Z,93.94
2023-02-11T07:54:16.643Z,94.48
2023-02-11T07:56:44.210Z,94.72
2023-02-11T07:59:12.594Z,94.11
2023-02-11T08:01:40.145Z,90.84
2023-02-11T08:04:07.627Z,93.13
2023-02-11T08:06:36.675Z,92.38
2023-02-11T08:09:05.774Z,91.41
2023-02-11T08:11:33.954Z,94.68
2023-02-11T08:14:01.568Z,91.47
2023-02-11T08:16:31.604Z,88.50
2023-02-11T08:19:00.558Z,88.51
2023-02-11T08:21:28.751Z,89.02
2023-02-11T08:23:58.079Z,91.69
2023-02-11T08:26:27.444Z,90.79
2023-02-11T08:28:56.415Z,92.11
2023-02-11T08:31:26.170Z,89.31
2023-02-11T08:33:54.829Z,88.17
2023-02-11T08:36:24.960Z,89.66
2023-02-11T08:39:05.678Z,91.27
2023-02-11T08:41:41.168Z,95.84
2023-02-11T08:44:08.712Z,93.44
2023-02-11T08:46:36.214Z,93.32
2023-02-11T08:49:04.876Z,89.47
2023-02-11T08:51:32.717Z,88.72
2023-02-11T08:54:01.037Z,92.26
2023-02-11T08:56:30.796Z,92.12
2023-02-11T08:58:59.673Z,91.23
2023-02-11T09:01:29.672Z,91.91
2023-02-11T09:03:57.720Z,91.70
2023-02-11T09:06:26.462Z,93.70
2023-02-11T09:08:55.712Z,96.47
2023-02-11T09:11:27.234Z,93.12
2023-02-11T09:13:54.897Z,93.34
2023-02-11T09:16:26.026Z,93.90
2023-02-11T09:18:54.292Z,92.30
2023-02-11T09:21:21.774Z,94.23
2023-02-11T09:23:51.160Z,94.86
2023-02-11T09:26:20.370Z,92.55
2023-02-11T09:28:48.419Z,92.57
2023-02-11T09:31:19.237Z,90.11
2023-02-11T09:33:49.815Z,94.40
2023-02-11T09:36:19.633Z,92.06
2023-02-11T09:38:48.705Z,93.36
2023-02-11T09:41:28.690Z,93.92
2023-02-11T09:43:58.380Z,93.63
2023-02-11T09:46:28.755Z,91.71
2023-02-11T09:48:57.998Z,92.99
2023-02-11T09:51:34.375Z,94.01
2023-02-11T09:54:06.647Z,92.02
2023-02-11T09:56:34.414Z,91.41
2023-02-11T09:59:01.930Z,91.85
2023-02-11T10:01:38.904Z,93.08
2023-02-11T10:04:15.540Z,93.91
2023-02-11T10:06:46.299Z,93.71
2023-02-11T10:09:26.758Z,95.27
2023-02-11T10:12:04.617Z,89.81
2023-02-11T10:14:55.468Z,91.31
2023-02-11T10:17:33.645Z,93.20
2023-02-11T10:20:17.175Z,92.38
2023-02-11T10:22:50.239Z,90.75
2023-02-11T10:25:23.324Z,91.43
2023-02-11T10:27:52.131Z,90.85
2023-02-11T10:30:29.485Z,92.08
2023-02-11T10:33:03.997Z,91.52
2023-02-11T10:35:33.407Z,92.33
2023-02-11T10:38:01.575Z,90.92
2023-02-11T10:40:31.310Z,92.57
2023-02-11T10:43:03.737Z,93.74
2023-02-11T10:45:34.607Z,96.34
2023-02-11T10:48:02.662Z,95.70
2023-02-11T10:50:33.428Z,95.28
2023-02-11T10:53:17.216Z,88.33
2023-02-11T10:55:52.145Z,91.70
2023-02-11T10:58:28.992Z,83.71
2023-02-11T11:00:58.053Z,87.96
2023-02-11T11:03:28.345Z,84.80
2023-02-11T11:05:59.719Z,85.69
2023-02-11T11:08:42.594Z,85.68
2023-02-11T11:11:12.068Z,80.75
2023-02-11T11:13:41.696Z,85.75
2023-02-11T11:16:21.685Z,85.96
2023-02-11T11:18:50.622Z,91.02
2023-02-11T11:21:22.260Z,85.03
2023-02-11T11:23:57.284Z,85.61
2023-02-11T11:26:27.658Z,87.50
2023-02-11T11:28:59.839Z,91.92
2023-02-11T11:31:31.377Z,91.76
2023-02-11T11:34:01.467Z,91.62
2023-02-11T11:36:36.153Z,92.51
2023-02-11T11:39:19.700Z,92.68
2023-02-11T11:41:52.352Z,93.24
2023-02-11T11:44:26.380Z,96.14
2023-02-11T11:47:14.633Z,95.65
2023-02-11T11:49:48.471Z,92.37
2023-02-11T11:52:26.532Z,91.89
2023-02-11T11:55:03.942Z,94.74
2023-02-11T11:57:35.120Z,95.71
2023-02-11T12:00:02.694Z,95.10
2023-02-11T12:02:51.981Z,94.58
2023-02-11T12:05:27.115Z,94.73
2023-02-11T12:08:04.786Z,95.39
2023-02-11T12:10:55.920Z,95.28
2023-02-11T12:13:35.078Z,94.99
2023-02-11T12:16:10.524Z,97.24
2023-02-11T12:19:00.289Z,96.41
2023-02-11T12:21:42.757Z,95.15
2023-02-11T12:24:36.015Z,94.45
2023-02-11T12:27:09.587Z,95.64
2023-02-11T12:29:53.309Z,95.73
2023-02-11T12:32:31.983Z,95.55
2023-02-11T12:35:23.793Z,96.86
2023-02-11T12:38:10.400Z,96.72
2023-02-11T12:40:44.947Z,96.69
2023-02-11T12:43:21.431Z,95.33
2023-02-11T12:46:09.146Z,98.02
2023-02-11T12:49:04.185Z,100.00
2023-02-11T12:51:45.195Z,97.92
2023-02-11T12:54:22.578Z,99.49
2023-02-11T12:56:54.479Z,99.83
2023-02-11T12:59:35.744Z,96.96
2023-02-11T13:02:13.557Z,98.19
2023-02-11T13:04:48.009Z,100.00
2023-02-11T13:07:20.314Z,100.00
2023-02-11T13:09:54.516Z,100.00
2023-02-11T13:12:40.438Z,100.00
2023-02-11T13:15:15.352Z,100.00
2023-02-11T13:17:51.027Z,100.00
2023-02-11T13:20:28.073Z,100.00
2023-02-11T13:23:02.811Z,100.00
2023-02-11T13:25:37.222Z,100.00
2023-02-11T13:28:21.310Z,100.00
2023-02-11T13:30:57.648Z,100.00
2023-02-11T13:33:33.905Z,100.00
2023-02-11T13:36:21.921Z,100.00
2023-02-11T13:39:10.909Z,100.00
2023-02-11T13:41:41.398Z,100.00
2023-02-11T13:44:34.561Z,100.00
2023-02-11T13:47:05.924Z,100.00
2023-02-11T13:49:40.391Z,100.00
2023-02-11T13:52:22.678Z,100.00
2023-02-11T13:54:52.747Z,100.00
2023-02-11T13:57:33.536Z,100.00
2023-02-11T14:00:03.279Z,100.00
2023-02-11T14:02:52.139Z,100.00
2023-02-11T14:05:47.229Z,100.00
2023-02-11T14:08:41.180Z,100.00
2023-02-11T14:11:25.248Z,100.00
2023-02-11T14:14:18.361Z,100.00
2023-02-11T14:17:22.407Z,100.00
2023-02-11T14:19:51.826Z,100.00
2023-02-11T14:22:25.863Z,100.00
2023-02-11T14:24:56.520Z,100.00
2023-02-11T14:27:29.121Z,100.00
2023-02-11T14:30:11.730Z,100.00
2023-02-11T14:32:49.975Z,100.00
2023-02-11T14:35:25.722Z,100.00
2023-02-11T14:38:03.215Z,100.00
2023-02-11T14:40:34.959Z,100.00
2023-02-11T14:43:12.688Z,100.00
2023-02-11T14:45:41.232Z,100.00
2023-02-11T14:48:15.811Z,100.00
2023-02-11T14:50:48.782Z,100.00
2023-02-11T14:53:19.272Z,100.00
2023-02-11T14:55:48.655Z,100.00
2023-02-11T14:58:18.215Z,100.00
2023-02-11T15:00:51.153Z,100.00
2023-02-11T15:03:36.690Z,100.00
2023-02-11T15:06:08.764Z,100.00
2023-02-11T15:08:39.131Z,100.00
2023-02-11T15:11:12.970Z,100.00
2023-02-11T15:13:47.329Z,100.00
2023-02-11T15:16:18.494Z,100.00
2023-02-11T15:18:48.951Z,100.00
2023-02-11T15:21:23.434Z,100.00
2023-02-11T15:23:58.589Z,100.00
2023-02-11T15:26:26.131Z,100.00
2023-02-11T15:28:53.657Z,100.00
2023-02-11T15:31:24.146Z,100.00
2023-02-11T15:33:52.800Z,100.00
2023-02-11T15:36:28.385Z,100.00
2023-02-11T15:39:18.509Z,100.00
2023-02-11T15:41:46.260Z,100.00
2023-02-11T15:44:29.593Z,100.00
2023-02-11T15:46:57.217Z,100.00
2023-02-11T15:49:25.369Z,100.00
2023-02-11T15:51:56.885Z,100.00
2023-02-11T15:54:27.316Z,100.00
2023-02-11T15:56:59.825Z,100.00
2023-02-11T15:59:31.495Z,100.00
2023-02-11T16:02:06.535Z,100.00
2023-02-11T16:04:34.190Z,100.00
2023-02-11T16:07:03.169Z,100.00
2023-02-11T16:09:35.453Z,100.00
2023-02-11T16:12:07.418Z,100.00
2023-02-11T16:14:39.132Z,100.00
2023-02-11T16:17:10.099Z,100.00
2023-02-11T16:19:43.551Z,100.00
2023-02-11T16:22:16.739Z,100.00
2023-02-11T16:24:48.536Z,100.00
2023-02-11T16:27:22.926Z,100.00
2023-02-11T16:29:51.973Z,100.00
2023-02-11T16:32:21.486Z,100.00
2023-02-11T16:34:49.428Z,100.00
2023-02-11T16:37:18.212Z,100.00
2023-02-11T16:39:46.601Z,100.00
2023-02-11T16:42:14.291Z,100.00
2023-02-11T16:44:41.822Z,100.00
2023-02-11T16:47:20.409Z,100.00
2023-02-11T16:49:47.893Z,100.00
2023-02-11T16:52:18.709Z,100.00
2023-02-11T16:54:46.207Z,100.00
2023-02-11T16:57:16.200Z,100.00
2023-02-11T16:59:44.026Z,100.00
2023-02-11T17:02:16.579Z,100.00
2023-02-11T17:04:44.963Z,100.00
2023-02-11T17:07:12.494Z,100.00
2023-02-11T17:09:41.391Z,100.00
2023-02-11T17:12:08.836Z,100.00
2023-02-11T17:14:36.271Z,100.00
2023-02-11T17:17:03.976Z,100.00
2023-02-11T17:19:31.708Z,100.00
2023-02-11T17:21:59.161Z,100.00
2023-02-11T17:24:26.560Z,100.00
2023-02-11T17:26:55.728Z,100.00
2023-02-11T17:29:25.294Z,100.00
2023-02-11T17:31:53.901Z,100.00
2023-02-11T17:34:22.465Z,100.00
2023-02-11T17:36:50.031Z,100.00
2023-02-11T17:39:17.490Z,100.00
2023-02-11T17:41:44.911Z,100.00
2023-02-11T17:44:14.098Z,100.00
2023-02-11T17:46:41.541Z,100.00
2023-02-11T17:49:09.033Z,100.00
2023-02-11T17:51:38.463Z,100.00
2023-02-11T17:54:08.125Z,100.00
2023-02-11T17:56:37.361Z,100.00
2023-02-11T17:59:06.544Z,100.00
2023-02-11T18:01:36.664Z,100.00
2023-02-11T18:04:05.648Z,100.00
2023-02-11T18:06:33.749Z,100.00
2023-02-11T18:09:04.156Z,100.00
2023-02-11T18:11:32.732Z,100.00
2023-02-11T18:14:01.067Z,100.00
2023-02-11T18:16:29.921Z,100.00
2023-02-11T18:18:59.743Z,100.00
2023-02-11T18:21:27.683Z,100.00
2023-02-11T18:23:56.932Z,100.00
2023-02-11T18:26:28.034Z,100.00
2023-02-11T18:28:57.525Z,100.00
2023-02-11T18:31:26.365Z,100.00
2023-02-11T18:33:54.762Z,100.00
2023-02-11T18:36:24.108Z,100.00
2023-02-11T18:38:53.601Z,100.00
2023-02-11T18:41:21.513Z,100.00
2023-02-11T18:43:48.968Z,100.00
2023-02-11T18:46:17.240Z,100.00
2023-02-11T18:48:45.748Z,100.00
2023-02-11T18:51:15.827Z,100.00
2023-02-11T18:53:44.730Z,100.00
2023-02-11T18:56:14.114Z,100.00
2023-02-11T18:58:41.610Z,100.00
2023-02-11T19:01:15.117Z,100.00
2023-02-11T19:03:43.101Z,100.00
2023-02-11T19:06:16.648Z,100.00
2023-02-11T19:08:45.436Z,100.00
2023-02-11T19:11:14.539Z,100.00
2023-02-11T19:13:42.084Z,100.00
2023-02-11T19:16:11.448Z,100.00
2023-02-11T19:18:39.840Z,100.00
2023-02-11T19:21:08.704Z,100.00
2023-02-11T19:23:37.877Z,100.00
2023-02-11T19:26:06.713Z,100.00
2023-02-11T19:28:35.267Z,100.00
2023-02-11T19:31:07.180Z,100.00
2023-02-11T19:33:34.768Z,100.00
2023-02-11T19:36:07.121Z,100.00
2023-02-11T19:38:35.226Z,100.00
2023-02-11T19:41:02.876Z,100.00
2023-02-11T19:43:31.721Z,100.00
2023-02-11T19:45:59.160Z,100.00
2023-02-11T19:48:26.770Z,100.00
2023-02-11T19:50:54.584Z,100.00
2023-02-11T19:53:22.254Z,100.00
2023-02-11T19:55:50.433Z,100.00
2023-02-11T19:58:18.558Z,100.00
2023-02-11T20:00:47.334Z,100.00
2023-02-11T20:03:14.722Z,100.00
2023-02-11T20:05:46.976Z,100.00
2023-02-11T20:08:14.493Z,100.00
2023-02-11T20:10:41.913Z,100.00
2023-02-11T20:13:09.328Z,100.00
2023-02-11T20:15:37.141Z,100.00
2023-02-11T20:18:06.126Z,100.00
2023-02-11T20:20:33.675Z,100.00
2023-02-11T20:23:01.115Z,100.00
2023-02-11T20:25:28.531Z,100.00
2023-02-11T20:27:56.263Z,100.00
2023-02-11T20:30:23.735Z,100.00
2023-02-11T20:32:51.305Z,100.00
2023-02-11T20:35:20.213Z,100.00
2023-02-11T20:37:47.622Z,100.00
2023-02-11T20:40:15.040Z,100.00
2023-02-11T20:42:42.465Z,100.00
2023-02-11T20:45:10.326Z,100.00
2023-02-11T20:47:38.258Z,100.00
2023-02-11T20:50:06.709Z,100.00
2023-02-11T20:52:36.341Z,100.00
2023-02-11T20:55:03.794Z,100.00
2023-02-11T20:57:31.190Z,100.00
2023-02-11T20:59:58.718Z,100.00
2023-02-11T21:02:26.161Z,100.00
2023-02-11T21:04:53.584Z,100.00
2023-02-11T21:07:21.007Z,100.00
2023-02-11T21:09:49.819Z,100.00
2023-02-11T21:12:17.359Z,100.00
2023-02-11T21:14:45.010Z,100.00
2023-02-11T21:17:12.998Z,100.00
2023-02-11T21:19:41.359Z,100.00
2023-02-11T21:22:08.825Z,100.00
2023-02-11T21:24:36.244Z,100.00
2023-02-11T21:27:05.028Z,100.00
2023-02-11T21:29:35.162Z,100.00
2023-02-11T21:32:04.224Z,100.00
2023-02-11T21:34:31.636Z,100.00
2023-02-11T21:36:59.097Z,100.00
2023-02-11T21:39:26.832Z,100.00
2023-02-11T21:41:55.902Z,100.00
2023-02-11T21:44:24.727Z,100.00
2023-02-11T21:46:52.466Z,100.00
2023-02-11T21:49:20.173Z,100.00
2023-02-11T21:51:47.568Z,100.00
2023-02-11T21:54:15.088Z,100.00
2023-02-11T21:56:42.553Z,100.00
2023-02-11T21:59:13.305Z,100.00
2023-02-11T22:01:42.177Z,99.93
2023-02-11T22:04:10.759Z,98.43
2023-02-11T22:06:38.590Z,100.00
2023-02-11T22:09:07.631Z,95.11
2023-02-11T22:11:35.705Z,90.39
2023-02-11T22:14:03.186Z,88.13
2023-02-11T22:16:31.029Z,84.39
2023-02-11T22:19:02.242Z,82.54
2023-02-11T22:21:29.728Z,83.40
2023-02-11T22:23:57.684Z,83.01
2023-02-11T22:26:26.609Z,84.37
2023-02-11T22:28:54.884Z,83.16
2023-02-11T22:31:24.994Z,81.46
2023-02-11T22:33:53.056Z,81.06
2023-02-11T22:36:24.825Z,82.14
2023-02-11T22:38:52.719Z,80.75
2023-02-11T22:41:21.295Z,82.05
2023-02-11T22:43:49.309Z,80.94
2023-02-11T22:46:19.278Z,80.61
2023-02-11T22:48:47.292Z,80.43
2023-02-11T22:51:16.650Z,81.18
2023-02-11T22:53:49.956Z,86.19
2023-02-11T22:56:17.468Z,89.06
2023-02-11T22:58:45.322Z,93.55
2023-02-11T23:01:14.010Z,92.13
2023-02-11T23:03:41.685Z,93.12
2023-02-11T23:06:10.007Z,92.28
2023-02-11T23:08:39.607Z,91.54
2023-02-11T23:11:10.791Z,94.50
2023-02-11T23:13:40.543Z,96.06
2023-02-11T23:16:10.518Z,97.41
2023-02-11T23:18:39.744Z,98.32
2023-02-11T23:21:12.379Z,98.56
2023-02-11T23:23:40.284Z,97.75
2023-02-11T23:26:12.442Z,98.16
2023-02-11T23:28:40.297Z,98.21
2023-02-11T23:31:16.528Z,97.55
2023-02-11T23:33:44.523Z,98.70
2023-02-11T23:36:12.477Z,98.98
2023-02-11T23:38:40.287Z,100.00
2023-02-11T23:41:07.998Z,99.71
2023-02-11T23:43:36.788Z,98.40
2023-02-11T23:46:04.424Z,98.29
2023-02-11T23:48:31.960Z,97.85
2023-02-11T23:50:59.438Z,97.55
2023-02-11T23:53:26.980Z,97.67
2023-02-11T23:55:54.807Z,95.02
2023-02-11T23:58:22.384Z,94.16
